sensor_id;sensor_type;location;lat;lon;timestamp;pressure;altitude;pressure_sealevel;temperature;humidity
11888;BME280;6003;42.756;23.130;2023-04-28T00:01:52;153311.06;;;3.50;76.19
11888;BME280;6003;42.756;23.130;2023-04-28T00:04:19;153311.06;;;3.50;76.73
11888;BME280;6003;42.756;23.130;2023-04-28T00:06:46;153321.59;;;3.54;76.18
11888;BME280;6003;42.756;23.130;2023-04-28T00:09:12;153311.06;;;3.50;76.80
11888;BME280;6003;42.756;23.130;2023-04-28T00:11:39;153304.47;;;3.48;76.57
11888;BME280;6003;42.756;23.130;2023-04-28T00:14:08;153316.34;;;3.52;76.49
11888;BME280;6003;42.756;23.130;2023-04-28T00:16:35;153305.84;;;3.48;76.48
11888;BME280;6003;42.756;23.130;2023-04-28T00:19:02;153313.72;;;3.51;76.47
11888;BME280;6003;42.756;23.130;2023-04-28T00:21:29;153318.94;;;3.53;76.11
11888;BME280;6003;42.756;23.130;2023-04-28T00:23:56;153316.34;;;3.52;75.45
11888;BME280;6003;42.756;23.130;2023-04-28T00:26:23;153287.41;;;3.41;75.41
11888;BME280;6003;42.756;23.130;2023-04-28T00:28:50;153301.88;;;3.47;75.95
11888;BME280;6003;42.756;23.130;2023-04-28T00:31:18;153309.75;;;3.50;75.44
11888;BME280;6003;42.756;23.130;2023-04-28T00:33:44;153308.44;;;3.49;75.22
11888;BME280;6003;42.756;23.130;2023-04-28T00:36:11;153299.25;;;3.46;75.08
11888;BME280;6003;42.756;23.130;2023-04-28T00:38:38;153283.50;;;3.39;75.09
11888;BME280;6003;42.756;23.130;2023-04-28T00:41:05;153288.72;;;3.42;75.07
11888;BME280;6003;42.756;23.130;2023-04-28T00:43:43;153291.38;;;3.43;74.68
11888;BME280;6003;42.756;23.130;2023-04-28T00:46:11;153300.56;;;3.46;74.59
11888;BME280;6003;42.756;23.130;2023-04-28T00:48:44;153297.91;;;3.45;74.45
11888;BME280;6003;42.756;23.130;2023-04-28T00:51:12;153259.81;;;3.30;75.00
11888;BME280;6003;42.756;23.130;2023-04-28T00:53:38;153282.16;;;3.39;74.51
11888;BME280;6003;42.756;23.130;2023-04-28T00:56:06;153292.69;;;3.43;74.42
11888;BME280;6003;42.756;23.130;2023-04-28T00:58:33;153276.94;;;3.37;74.92
11888;BME280;6003;42.756;23.130;2023-04-28T01:01:03;153271.66;;;3.35;74.54
11888;BME280;6003;42.756;23.130;2023-04-28T01:03:33;153276.94;;;3.37;74.33
11888;BME280;6003;42.756;23.130;2023-04-28T01:06:01;153284.81;;;3.40;74.37
11888;BME280;6003;42.756;23.130;2023-04-28T01:08:30;153271.66;;;3.35;74.20
11888;BME280;6003;42.756;23.130;2023-04-28T01:10:57;153270.34;;;3.34;74.96
11888;BME280;6003;42.756;23.130;2023-04-28T01:13:24;153287.41;;;3.41;74.43
11888;BME280;6003;42.756;23.130;2023-04-28T01:15:51;153276.94;;;3.37;75.25
11888;BME280;6003;42.756;23.130;2023-04-28T01:18:19;153246.72;;;3.25;75.27
11888;BME280;6003;42.756;23.130;2023-04-28T01:20:45;153232.25;;;3.20;76.21
11888;BME280;6003;42.756;23.130;2023-04-28T01:23:15;153226.97;;;3.17;76.38
11888;BME280;6003;42.756;23.130;2023-04-28T01:25:43;153221.72;;;3.15;76.23
11888;BME280;6003;42.756;23.130;2023-04-28T01:28:10;153216.44;;;3.13;76.34
11888;BME280;6003;42.756;23.130;2023-04-28T01:30:37;153221.72;;;3.15;76.09
11888;BME280;6003;42.756;23.130;2023-04-28T01:33:04;153205.97;;;3.09;76.94
11888;BME280;6003;42.756;23.130;2023-04-28T01:35:31;153194.13;;;3.05;76.48
11888;BME280;6003;42.756;23.130;2023-04-28T01:37:58;153200.69;;;3.07;76.49
11888;BME280;6003;42.756;23.130;2023-04-28T01:40:25;153216.44;;;3.13;76.55
11888;BME280;6003;42.756;23.130;2023-04-28T01:42:53;153199.38;;;3.07;77.01
11888;BME280;6003;42.756;23.130;2023-04-28T01:45:20;153204.66;;;3.09;77.20
11888;BME280;6003;42.756;23.130;2023-04-28T01:47:47;153190.19;;;3.03;77.27
11888;BME280;6003;42.756;23.130;2023-04-28T01:50:13;153177.06;;;2.98;77.09
11888;BME280;6003;42.756;23.130;2023-04-28T01:52:40;153158.69;;;2.91;77.63
11888;BME280;6003;42.756;23.130;2023-04-28T01:55:07;153142.88;;;2.85;77.89
11888;BME280;6003;42.756;23.130;2023-04-28T01:57:34;153131.09;;;2.80;77.83
11888;BME280;6003;42.756;23.130;2023-04-28T02:00:03;153106.16;;;2.70;79.05
11888;BME280;6003;42.756;23.130;2023-04-28T02:02:31;153069.41;;;2.56;79.42
11888;BME280;6003;42.756;23.130;2023-04-28T02:04:58;153052.28;;;2.49;79.19
11888;BME280;6003;42.756;23.130;2023-04-28T02:07:24;153024.75;;;2.39;79.60
11888;BME280;6003;42.756;23.130;2023-04-28T02:09:51;153016.84;;;2.36;79.83
11888;BME280;6003;42.756;23.130;2023-04-28T02:12:18;153010.31;;;2.33;79.68
11888;BME280;6003;42.756;23.130;2023-04-28T02:14:45;153005.03;;;2.31;80.73
11888;BME280;6003;42.756;23.130;2023-04-28T02:17:13;153002.38;;;2.30;80.16
11888;BME280;6003;42.756;23.130;2023-04-28T02:19:39;153024.75;;;2.39;80.32
11888;BME280;6003;42.756;23.130;2023-04-28T02:22:06;153022.09;;;2.38;80.56
11888;BME280;6003;42.756;23.130;2023-04-28T02:24:34;153011.63;;;2.34;80.06
11888;BME280;6003;42.756;23.130;2023-04-28T02:27:02;153011.63;;;2.34;79.86
11888;BME280;6003;42.756;23.130;2023-04-28T02:29:29;152998.47;;;2.29;81.08
11888;BME280;6003;42.756;23.130;2023-04-28T02:31:56;152974.84;;;2.19;81.57
11888;BME280;6003;42.756;23.130;2023-04-28T02:34:24;152982.72;;;2.22;80.92
11888;BME280;6003;42.756;23.130;2023-04-28T02:36:51;153006.34;;;2.32;80.24
11888;BME280;6003;42.756;23.130;2023-04-28T02:39:18;152995.88;;;2.28;80.73
11888;BME280;6003;42.756;23.130;2023-04-28T02:41:49;152982.72;;;2.22;81.06
11888;BME280;6003;42.756;23.130;2023-04-28T02:44:16;152982.72;;;2.22;81.14
11888;BME280;6003;42.756;23.130;2023-04-28T02:46:43;152972.19;;;2.18;80.48
11888;BME280;6003;42.756;23.130;2023-04-28T02:49:10;152943.31;;;2.07;81.27
11888;BME280;6003;42.756;23.130;2023-04-28T02:51:38;152951.25;;;2.10;80.97
11888;BME280;6003;42.756;23.130;2023-04-28T02:54:05;152940.72;;;2.06;81.58
11888;BME280;6003;42.756;23.130;2023-04-28T02:56:32;152914.50;;;1.96;81.71
11888;BME280;6003;42.756;23.130;2023-04-28T02:58:59;152924.97;;;2.00;82.20
11888;BME280;6003;42.756;23.130;2023-04-28T03:01:26;152911.84;;;1.95;82.32
11888;BME280;6003;42.756;23.130;2023-04-28T03:03:53;152906.63;;;1.93;82.08
11888;BME280;6003;42.756;23.130;2023-04-28T03:06:19;152893.47;;;1.88;83.14
11888;BME280;6003;42.756;23.130;2023-04-28T03:08:48;152906.63;;;1.93;81.96
11888;BME280;6003;42.756;23.130;2023-04-28T03:11:14;152911.84;;;1.95;81.76
11888;BME280;6003;42.756;23.130;2023-04-28T03:13:41;152928.94;;;2.01;81.91
11888;BME280;6003;42.756;23.130;2023-04-28T03:16:08;152907.91;;;1.93;81.99
11888;BME280;6003;42.756;23.130;2023-04-28T03:18:35;152911.84;;;1.95;82.14
11888;BME280;6003;42.756;23.130;2023-04-28T03:21:01;152903.97;;;1.92;82.13
11888;BME280;6003;42.756;23.130;2023-04-28T03:23:28;152919.69;;;1.98;81.38
11888;BME280;6003;42.756;23.130;2023-04-28T03:25:57;152932.84;;;2.03;80.83
11888;BME280;6003;42.756;23.130;2023-04-28T03:28:23;152931.53;;;2.02;80.83
11888;BME280;6003;42.756;23.130;2023-04-28T03:30:50;152939.41;;;2.06;80.70
11888;BME280;6003;42.756;23.130;2023-04-28T03:33:17;152948.59;;;2.09;80.61
11888;BME280;6003;42.756;23.130;2023-04-28T03:35:44;152961.72;;;2.14;81.48
11888;BME280;6003;42.756;23.130;2023-04-28T03:38:11;152977.47;;;2.20;81.15
11888;BME280;6003;42.756;23.130;2023-04-28T03:40:37;153003.75;;;2.31;80.63
11888;BME280;6003;42.756;23.130;2023-04-28T03:43:06;153014.22;;;2.35;80.20
11888;BME280;6003;42.756;23.130;2023-04-28T03:45:32;153069.41;;;2.56;79.21
11888;BME280;6003;42.756;23.130;2023-04-28T03:47:59;153083.84;;;2.62;79.21
11888;BME280;6003;42.756;23.130;2023-04-28T03:50:26;153135.00;;;2.82;78.61
11888;BME280;6003;42.756;23.130;2023-04-28T03:52:53;153203.34;;;3.08;77.20
11888;BME280;6003;42.756;23.130;2023-04-28T03:55:20;153282.16;;;3.39;76.18
11888;BME280;6003;42.756;23.130;2023-04-28T03:57:46;153358.41;;;3.69;76.02
11888;BME280;6003;42.756;23.130;2023-04-28T04:00:15;153456.97;;;4.07;73.62
11888;BME280;6003;42.756;23.130;2023-04-28T04:02:42;153531.91;;;4.36;72.84
11888;BME280;6003;42.756;23.130;2023-04-28T04:05:09;153555.59;;;4.45;71.77
11888;BME280;6003;42.756;23.130;2023-04-28T04:07:36;153629.25;;;4.74;70.62
11888;BME280;6003;42.756;23.130;2023-04-28T04:10:03;153673.97;;;4.91;69.80
11888;BME280;6003;42.756;23.130;2023-04-28T04:12:29;153693.72;;;4.99;69.56
11888;BME280;6003;42.756;23.130;2023-04-28T04:14:56;153701.63;;;5.02;69.31
11888;BME280;6003;42.756;23.130;2023-04-28T04:17:25;153772.69;;;5.30;68.93
11888;BME280;6003;42.756;23.130;2023-04-28T04:19:51;153835.84;;;5.54;68.59
11888;BME280;6003;42.756;23.130;2023-04-28T04:22:18;153887.22;;;5.74;68.65
11888;BME280;6003;42.756;23.130;2023-04-28T04:24:45;153937.31;;;5.94;66.57
11888;BME280;6003;42.756;23.130;2023-04-28T04:27:12;154061.13;;;6.42;65.97
11888;BME280;6003;42.756;23.130;2023-04-28T04:29:39;154187.63;;;6.91;63.88
11888;BME280;6003;42.756;23.130;2023-04-28T04:32:06;154372.19;;;7.62;62.62
11888;BME280;6003;42.756;23.130;2023-04-28T04:34:34;154535.75;;;8.26;59.47
11888;BME280;6003;42.756;23.130;2023-04-28T04:37:01;154894.84;;;9.65;57.79
11888;BME280;6003;42.756;23.130;2023-04-28T04:39:28;154999.19;;;10.05;55.15
11888;BME280;6003;42.756;23.130;2023-04-28T04:41:55;155083.81;;;10.38;54.33
11888;BME280;6003;42.756;23.130;2023-04-28T04:44:22;155124.78;;;10.54;52.81
11888;BME280;6003;42.756;23.130;2023-04-28T04:46:55;155201.44;;;10.83;52.37
11888;BME280;6003;42.756;23.130;2023-04-28T04:49:22;155331.06;;;11.34;51.55
11888;BME280;6003;42.756;23.130;2023-04-28T04:51:50;155291.34;;;11.18;50.95
11888;BME280;6003;42.756;23.130;2023-04-28T04:54:17;155356.19;;;11.43;50.77
11888;BME280;6003;42.756;23.130;2023-04-28T04:56:44;155294.03;;;11.19;50.75
11888;BME280;6003;42.756;23.130;2023-04-28T04:59:11;155253.03;;;11.03;50.19
11888;BME280;6003;42.756;23.130;2023-04-28T05:01:38;155381.28;;;11.53;50.77
11888;BME280;6003;42.756;23.130;2023-04-28T05:04:04;155528.22;;;12.10;50.16
11888;BME280;6003;42.756;23.130;2023-04-28T05:06:31;155397.16;;;11.59;50.34
11888;BME280;6003;42.756;23.130;2023-04-28T05:09:00;155417.03;;;11.67;51.06
11888;BME280;6003;42.756;23.130;2023-04-28T05:11:26;155399.84;;;11.60;49.95
11888;BME280;6003;42.756;23.130;2023-04-28T05:13:53;155488.53;;;11.94;50.40
11888;BME280;6003;42.756;23.130;2023-04-28T05:16:20;155459.38;;;11.83;49.18
11888;BME280;6003;42.756;23.130;2023-04-28T05:18:47;155397.16;;;11.59;49.21
11888;BME280;6003;42.756;23.130;2023-04-28T05:21:14;155346.94;;;11.40;50.53
11888;BME280;6003;42.756;23.130;2023-04-28T05:23:41;155279.50;;;11.14;51.02
11888;BME280;6003;42.756;23.130;2023-04-28T05:26:09;155431.56;;;11.72;51.09
11888;BME280;6003;42.756;23.130;2023-04-28T05:28:38;155336.31;;;11.36;49.88
11888;BME280;6003;42.756;23.130;2023-04-28T05:31:05;155417.03;;;11.67;49.91
11888;BME280;6003;42.756;23.130;2023-04-28T05:33:32;155513.66;;;12.04;51.67
11888;BME280;6003;42.756;23.130;2023-04-28T05:35:59;155447.44;;;11.79;50.00
11888;BME280;6003;42.756;23.130;2023-04-28T05:38:25;155577.22;;;12.29;50.26
11888;BME280;6003;42.756;23.130;2023-04-28T05:40:53;155606.34;;;12.40;48.96
11888;BME280;6003;42.756;23.130;2023-04-28T05:43:21;155552.03;;;12.19;49.33
11888;BME280;6003;42.756;23.130;2023-04-28T05:45:48;155595.72;;;12.36;49.26
11888;BME280;6003;42.756;23.130;2023-04-28T05:48:15;155693.66;;;12.74;48.17
11888;BME280;6003;42.756;23.130;2023-04-28T05:50:41;155485.84;;;11.93;48.63
11888;BME280;6003;42.756;23.130;2023-04-28T05:53:08;155442.13;;;11.77;50.18
11888;BME280;6003;42.756;23.130;2023-04-28T05:55:35;155471.31;;;11.88;49.80
11888;BME280;6003;42.756;23.130;2023-04-28T05:58:02;155469.97;;;11.87;50.07
11888;BME280;6003;42.756;23.130;2023-04-28T06:00:30;155526.91;;;12.09;49.11
11888;BME280;6003;42.756;23.130;2023-04-28T06:02:57;155614.28;;;12.43;48.44
11888;BME280;6003;42.756;23.130;2023-04-28T06:05:24;155744.00;;;12.93;48.10
11888;BME280;6003;42.756;23.130;2023-04-28T06:07:51;155701.63;;;12.77;46.72
11888;BME280;6003;42.756;23.130;2023-04-28T06:10:20;155525.59;;;12.09;48.66
11888;BME280;6003;42.756;23.130;2023-04-28T06:12:47;155573.22;;;12.27;48.26
11888;BME280;6003;42.756;23.130;2023-04-28T06:15:14;155468.66;;;11.87;49.46
11888;BME280;6003;42.756;23.130;2023-04-28T06:17:42;155669.84;;;12.64;49.68
11888;BME280;6003;42.756;23.130;2023-04-28T06:20:10;155824.78;;;13.24;48.88
11888;BME280;6003;42.756;23.130;2023-04-28T06:22:38;155706.91;;;12.79;47.67
11888;BME280;6003;42.756;23.130;2023-04-28T06:25:05;155717.50;;;12.83;48.04
11888;BME280;6003;42.756;23.130;2023-04-28T06:27:32;155622.22;;;12.46;47.14
11888;BME280;6003;42.756;23.130;2023-04-28T06:29:59;155550.72;;;12.18;48.97
11888;BME280;6003;42.756;23.130;2023-04-28T06:32:26;155545.41;;;12.16;49.04
11888;BME280;6003;42.756;23.130;2023-04-28T06:34:54;155627.47;;;12.48;50.10
11888;BME280;6003;42.756;23.130;2023-04-28T06:37:21;155537.47;;;12.13;49.43
11888;BME280;6003;42.756;23.130;2023-04-28T06:39:48;155532.22;;;12.11;48.82
11888;BME280;6003;42.756;23.130;2023-04-28T06:42:14;155485.84;;;11.93;48.48
11888;BME280;6003;42.756;23.130;2023-04-28T06:44:43;155521.59;;;12.07;52.89
11888;BME280;6003;42.756;23.130;2023-04-28T06:47:10;155489.84;;;11.95;50.40
11888;BME280;6003;42.756;23.130;2023-04-28T06:49:37;155544.09;;;12.16;50.16
11888;BME280;6003;42.756;23.130;2023-04-28T06:52:05;155529.53;;;12.10;48.62
11888;BME280;6003;42.756;23.130;2023-04-28T06:54:33;155647.34;;;12.56;51.01
11888;BME280;6003;42.756;23.130;2023-04-28T06:57:02;155601.03;;;12.38;47.57
11888;BME280;6003;42.756;23.130;2023-04-28T06:59:30;155636.78;;;12.52;48.35
11888;BME280;6003;42.756;23.130;2023-04-28T07:01:56;155689.72;;;12.72;49.63
11888;BME280;6003;42.756;23.130;2023-04-28T07:04:23;155619.53;;;12.45;46.71
11888;BME280;6003;42.756;23.130;2023-04-28T07:06:50;155643.34;;;12.54;48.50
11888;BME280;6003;42.756;23.130;2023-04-28T07:09:19;155601.03;;;12.38;49.76
11888;BME280;6003;42.756;23.130;2023-04-28T07:11:46;155532.22;;;12.11;47.31
11888;BME280;6003;42.756;23.130;2023-04-28T07:14:12;155573.22;;;12.27;46.91
11888;BME280;6003;42.756;23.130;2023-04-28T07:16:39;155511.03;;;12.03;47.24
11888;BME280;6003;42.756;23.130;2023-04-28T07:19:06;155595.72;;;12.36;48.11
11888;BME280;6003;42.756;23.130;2023-04-28T07:21:33;155675.16;;;12.67;47.49
11888;BME280;6003;42.756;23.130;2023-04-28T07:24:00;155700.28;;;12.76;47.78
11888;BME280;6003;42.756;23.130;2023-04-28T07:26:28;155733.44;;;12.89;50.36
11888;BME280;6003;42.756;23.130;2023-04-28T07:28:55;155712.22;;;12.81;43.83
11888;BME280;6003;42.756;23.130;2023-04-28T07:31:22;155669.84;;;12.64;44.70
11888;BME280;6003;42.756;23.130;2023-04-28T07:33:48;155672.47;;;12.65;47.26
11888;BME280;6003;42.756;23.130;2023-04-28T07:36:16;155789.03;;;13.10;48.05
11888;BME280;6003;42.756;23.130;2023-04-28T07:38:42;155917.56;;;13.60;47.52
11888;BME280;6003;42.756;23.130;2023-04-28T07:41:09;156069.97;;;14.19;44.37
11888;BME280;6003;42.756;23.130;2023-04-28T07:43:38;156172.06;;;14.58;44.87
11888;BME280;6003;42.756;23.130;2023-04-28T07:46:05;156107.09;;;14.33;43.78
11888;BME280;6003;42.756;23.130;2023-04-28T07:48:32;156023.56;;;14.01;43.33
11888;BME280;6003;42.756;23.130;2023-04-28T07:50:59;156052.72;;;14.12;41.58
11888;BME280;6003;42.756;23.130;2023-04-28T07:53:26;156099.13;;;14.30;41.12
11888;BME280;6003;42.756;23.130;2023-04-28T07:55:53;156036.81;;;14.06;42.34
11888;BME280;6003;42.756;23.130;2023-04-28T07:58:20;155969.22;;;13.80;42.75
11888;BME280;6003;42.756;23.130;2023-04-28T08:00:48;155787.69;;;13.10;42.04
11888;BME280;6003;42.756;23.130;2023-04-28T08:03:15;155913.59;;;13.59;45.64
11888;BME280;6003;42.756;23.130;2023-04-28T08:05:42;156046.13;;;14.10;44.51
11888;BME280;6003;42.756;23.130;2023-04-28T08:08:10;156177.38;;;14.60;43.00
11888;BME280;6003;42.756;23.130;2023-04-28T08:10:38;156202.56;;;14.70;40.37
11888;BME280;6003;42.756;23.130;2023-04-28T08:13:08;156141.53;;;14.47;41.03
11888;BME280;6003;42.756;23.130;2023-04-28T08:15:34;156027.53;;;14.03;41.77
11888;BME280;6003;42.756;23.130;2023-04-28T08:18:03;156112.34;;;14.35;43.04
11888;BME280;6003;42.756;23.130;2023-04-28T08:20:30;156138.91;;;14.45;40.81
11888;BME280;6003;42.756;23.130;2023-04-28T08:22:57;156121.69;;;14.39;41.08
11888;BME280;6003;42.756;23.130;2023-04-28T08:25:24;156005.00;;;13.94;41.85
11888;BME280;6003;42.756;23.130;2023-04-28T08:27:51;156047.44;;;14.10;44.54
11888;BME280;6003;42.756;23.130;2023-04-28T08:30:18;156077.91;;;14.22;41.48
11888;BME280;6003;42.756;23.130;2023-04-28T08:32:45;156038.13;;;14.07;43.63
11888;BME280;6003;42.756;23.130;2023-04-28T08:35:13;156023.56;;;14.01;43.80
11888;BME280;6003;42.756;23.130;2023-04-28T08:37:41;156077.91;;;14.22;46.48
11888;BME280;6003;42.756;23.130;2023-04-28T08:40:08;156144.22;;;14.48;42.69
11888;BME280;6003;42.756;23.130;2023-04-28T08:42:35;156077.91;;;14.22;41.72
11888;BME280;6003;42.756;23.130;2023-04-28T08:55:11;156113.72;;;14.36;44.73
11888;BME280;6003;42.756;23.130;2023-04-28T08:57:43;156038.13;;;14.07;40.10
11888;BME280;6003;42.756;23.130;2023-04-28T09:00:11;156103.09;;;14.32;41.28
11888;BME280;6003;42.756;23.130;2023-04-28T09:02:38;156072.59;;;14.20;41.17
11888;BME280;6003;42.756;23.130;2023-04-28T09:05:07;156185.34;;;14.63;43.69
11888;BME280;6003;42.756;23.130;2023-04-28T09:07:34;156146.84;;;14.49;40.46
11888;BME280;6003;42.756;23.130;2023-04-28T09:10:20;156226.47;;;14.79;41.89
11888;BME280;6003;42.756;23.130;2023-04-28T09:12:50;156295.41;;;15.06;41.94
11888;BME280;6003;42.756;23.130;2023-04-28T09:15:28;156294.09;;;15.05;40.03
11888;BME280;6003;42.756;23.130;2023-04-28T09:17:55;156308.69;;;15.11;40.10
11888;BME280;6003;42.756;23.130;2023-04-28T09:20:23;156298.06;;;15.07;39.38
11888;BME280;6003;42.756;23.130;2023-04-28T09:22:51;156205.25;;;14.71;40.17
11888;BME280;6003;42.756;23.130;2023-04-28T09:25:20;156189.34;;;14.65;39.88
11888;BME280;6003;42.756;23.130;2023-04-28T09:27:47;156195.97;;;14.68;40.27
11888;BME280;6003;42.756;23.130;2023-04-28T09:30:14;156149.47;;;14.50;37.95
11888;BME280;6003;42.756;23.130;2023-04-28T09:32:41;156210.56;;;14.73;39.68
11888;BME280;6003;42.756;23.130;2023-04-28T09:35:08;156337.88;;;15.22;40.54
11888;BME280;6003;42.756;23.130;2023-04-28T09:37:35;156453.28;;;15.67;40.75
11888;BME280;6003;42.756;23.130;2023-04-28T09:40:05;156479.91;;;15.77;44.17
11888;BME280;6003;42.756;23.130;2023-04-28T09:42:36;156531.66;;;15.97;36.17
11888;BME280;6003;42.756;23.130;2023-04-28T09:45:04;156451.97;;;15.66;41.06
11888;BME280;6003;42.756;23.130;2023-04-28T09:47:32;156359.06;;;15.30;39.02
11888;BME280;6003;42.756;23.130;2023-04-28T09:50:01;156360.44;;;15.31;40.88
11888;BME280;6003;42.756;23.130;2023-04-28T09:52:28;156152.16;;;14.51;49.14
11888;BME280;6003;42.756;23.130;2023-04-28T09:54:56;156235.75;;;14.83;47.39
11888;BME280;6003;42.756;23.130;2023-04-28T09:57:23;156229.09;;;14.80;39.22
11888;BME280;6003;42.756;23.130;2023-04-28T09:59:52;156245.00;;;14.86;45.27
11888;BME280;6003;42.756;23.130;2023-04-28T10:02:20;156335.19;;;15.21;39.39
11888;BME280;6003;42.756;23.130;2023-04-28T10:04:48;156340.50;;;15.23;39.84
11888;BME280;6003;42.756;23.130;2023-04-28T10:07:16;156287.47;;;15.03;38.52
11888;BME280;6003;42.756;23.130;2023-04-28T10:09:43;156264.91;;;14.94;40.46
11888;BME280;6003;42.756;23.130;2023-04-28T10:12:12;156218.50;;;14.76;38.38
11888;BME280;6003;42.756;23.130;2023-04-28T10:14:40;156170.75;;;14.58;38.14
11888;BME280;6003;42.756;23.130;2023-04-28T10:17:09;156141.53;;;14.47;40.55
11888;BME280;6003;42.756;23.130;2023-04-28T10:19:37;156087.19;;;14.26;38.70
11888;BME280;6003;42.756;23.130;2023-04-28T10:22:26;156069.97;;;14.19;41.14
11888;BME280;6003;42.756;23.130;2023-04-28T10:25:11;156071.28;;;14.19;39.22
11888;BME280;6003;42.756;23.130;2023-04-28T10:27:44;156065.97;;;14.17;40.74
11888;BME280;6003;42.756;23.130;2023-04-28T10:30:13;156036.81;;;14.06;40.72
11888;BME280;6003;42.756;23.130;2023-04-28T10:32:43;156067.28;;;14.18;43.57
11888;BME280;6003;42.756;23.130;2023-04-28T10:38:15;156111.03;;;14.35;43.30
11888;BME280;6003;42.756;23.130;2023-04-28T10:40:42;156137.56;;;14.45;41.81
11888;BME280;6003;42.756;23.130;2023-04-28T10:43:11;156140.22;;;14.46;41.69
11888;BME280;6003;42.756;23.130;2023-04-28T10:46:03;156133.56;;;14.43;42.59
11888;BME280;6003;42.756;23.130;2023-04-28T10:48:53;156097.78;;;14.30;39.42
11888;BME280;6003;42.756;23.130;2023-04-28T10:51:21;156083.19;;;14.24;38.69
11888;BME280;6003;42.756;23.130;2023-04-28T10:54:18;156058.03;;;14.14;37.79
11888;BME280;6003;42.756;23.130;2023-04-28T10:57:18;156104.41;;;14.32;38.47
11888;BME280;6003;42.756;23.130;2023-04-28T10:59:46;156083.19;;;14.24;38.36
11888;BME280;6003;42.756;23.130;2023-04-28T11:02:35;156138.91;;;14.45;40.79
11888;BME280;6003;42.756;23.130;2023-04-28T11:05:13;156140.22;;;14.46;41.39
11888;BME280;6003;42.756;23.130;2023-04-28T11:07:40;156093.81;;;14.28;40.09
11888;BME280;6003;42.756;23.130;2023-04-28T11:10:07;156170.75;;;14.58;40.91
11888;BME280;6003;42.756;23.130;2023-04-28T11:12:34;156250.34;;;14.88;42.65
11888;BME280;6003;42.756;23.130;2023-04-28T11:15:11;156254.28;;;14.90;39.54
11888;BME280;6003;42.756;23.130;2023-04-28T11:17:40;156227.78;;;14.80;39.94
11888;BME280;6003;42.756;23.130;2023-04-28T11:20:12;156157.47;;;14.53;40.22
11888;BME280;6003;42.756;23.130;2023-04-28T11:22:40;156206.56;;;14.72;41.19
11888;BME280;6003;42.756;23.130;2023-04-28T11:25:08;156252.97;;;14.89;43.71
11888;BME280;6003;42.756;23.130;2023-04-28T11:27:35;156245.00;;;14.86;41.06
11888;BME280;6003;42.756;23.130;2023-04-28T11:30:02;156235.75;;;14.83;39.72
11888;BME280;6003;42.756;23.130;2023-04-28T11:32:32;156258.28;;;14.92;39.24
11888;BME280;6003;42.756;23.130;2023-04-28T11:34:59;156294.09;;;15.05;40.46
11888;BME280;6003;42.756;23.130;2023-04-28T11:37:27;156339.19;;;15.23;42.33
11888;BME280;6003;42.756;23.130;2023-04-28T11:39:54;156412.19;;;15.51;44.23
11888;BME280;6003;42.756;23.130;2023-04-28T11:42:21;156449.31;;;15.65;43.09
11888;BME280;6003;42.756;23.130;2023-04-28T11:44:51;156446.63;;;15.64;38.89
11888;BME280;6003;42.756;23.130;2023-04-28T11:47:28;156365.69;;;15.33;36.83
11888;BME280;6003;42.756;23.130;2023-04-28T11:49:55;156359.06;;;15.30;42.39
11888;BME280;6003;42.756;23.130;2023-04-28T11:52:23;156406.84;;;15.49;44.35
11888;BME280;6003;42.756;23.130;2023-04-28T11:54:56;156388.25;;;15.42;38.88
11888;BME280;6003;42.756;23.130;2023-04-28T11:57:25;156412.19;;;15.51;41.45
11888;BME280;6003;42.756;23.130;2023-04-28T11:59:52;156451.97;;;15.66;45.20
11888;BME280;6003;42.756;23.130;2023-04-28T12:02:24;156469.25;;;15.73;37.19
11888;BME280;6003;42.756;23.130;2023-04-28T12:04:53;156414.81;;;15.52;37.50
11888;BME280;6003;42.756;23.130;2023-04-28T12:07:20;156317.97;;;15.15;37.45
11888;BME280;6003;42.756;23.130;2023-04-28T12:09:56;156343.16;;;15.24;40.35
11888;BME280;6003;42.756;23.130;2023-04-28T12:12:36;156359.06;;;15.30;41.51
11888;BME280;6003;42.756;23.130;2023-04-28T12:15:04;156356.44;;;15.29;39.95
11888;BME280;6003;42.756;23.130;2023-04-28T12:17:33;156300.75;;;15.08;39.64
11888;BME280;6003;42.756;23.130;2023-04-28T12:20:01;156258.28;;;14.92;36.40
11888;BME280;6003;42.756;23.130;2023-04-28T12:22:28;156258.28;;;14.92;38.03
11888;BME280;6003;42.756;23.130;2023-04-28T12:25:03;156255.66;;;14.91;37.30
11888;BME280;6003;42.756;23.130;2023-04-28T12:27:31;156306.00;;;15.10;40.96
11888;BME280;6003;42.756;23.130;2023-04-28T12:29:59;156357.75;;;15.30;41.30
11888;BME280;6003;42.756;23.130;2023-04-28T12:32:39;156401.53;;;15.47;40.74
11888;BME280;6003;42.756;23.130;2023-04-28T12:35:08;156409.50;;;15.50;41.77
11888;BME280;6003;42.756;23.130;2023-04-28T12:37:36;156425.41;;;15.56;40.69
11888;BME280;6003;42.756;23.130;2023-04-28T12:40:05;156438.69;;;15.61;39.06
11888;BME280;6003;42.756;23.130;2023-04-28T12:42:33;156454.59;;;15.67;43.58
11888;BME280;6003;42.756;23.130;2023-04-28T12:45:01;156494.50;;;15.83;41.68
11888;BME280;6003;42.756;23.130;2023-04-28T12:47:28;156445.31;;;15.64;37.70
11888;BME280;6003;42.756;23.130;2023-04-28T12:49:55;156462.59;;;15.70;37.52
11888;BME280;6003;42.756;23.130;2023-04-28T12:52:22;156470.56;;;15.73;41.85
11888;BME280;6003;42.756;23.130;2023-04-28T12:54:49;156478.53;;;15.76;40.94
11888;BME280;6003;42.756;23.130;2023-04-28T12:57:16;156494.50;;;15.83;41.98
11888;BME280;6003;42.756;23.130;2023-04-28T12:59:44;156497.13;;;15.84;38.50
11888;BME280;6003;42.756;23.130;2023-04-28T13:02:13;156481.22;;;15.77;36.60
11888;BME280;6003;42.756;23.130;2023-04-28T13:04:40;156470.56;;;15.73;37.19
11888;BME280;6003;42.756;23.130;2023-04-28T13:07:09;156451.97;;;15.66;37.89
11888;BME280;6003;42.756;23.130;2023-04-28T13:09:36;156409.50;;;15.50;37.67
11888;BME280;6003;42.756;23.130;2023-04-28T13:12:03;156420.13;;;15.54;38.80